Time;durP1;ratioP1;P1;durP2;ratioP2;P2;SDS_P1;SDS_P2;PMS_P1;PMS_P2;Temp;Humidity;BMP_temperature;BMP_pressure;BME280_temperature;BME280_humidity;BME280_pressure;Samples;Min_cycle;Max_cycle;Signal;HPM_P1;HPM_P2
2021/09/05 00:00:47;;;;;;;1.50;1.00;;;15.90;98.20;;;;;;4983521;28;20461;-80
2021/09/05 00:03:14;;;;;;;1.50;1.00;;;15.90;98.20;;;;;;4992192;28;20457;-80
2021/09/05 00:05:41;;;;;;;1.50;1.00;;;15.90;98.20;;;;;;4994236;28;20515;-79
2021/09/05 00:08:08;;;;;;;1.50;1.00;;;15.90;98.20;;;;;;4967271;28;20487;-79
2021/09/05 00:10:35;;;;;;;1.50;1.10;;;15.90;98.20;;;;;;4994282;28;20457;-79
2021/09/05 00:13:02;;;;;;;1.50;0.90;;;15.90;98.20;;;;;;4982046;28;20488;-80
2021/09/05 00:15:30;;;;;;;1.50;1.07;;;15.80;98.20;;;;;;4993622;28;20598;-80
2021/09/05 00:17:57;;;;;;;1.50;1.00;;;15.80;98.20;;;;;;4981841;28;20492;-80
2021/09/05 00:20:23;;;;;;;1.50;1.00;;;15.80;98.20;;;;;;4993995;28;20456;-81
2021/09/05 00:22:50;;;;;;;1.50;1.00;;;15.80;98.20;;;;;;4977560;28;20512;-79
2021/09/05 00:25:17;;;;;;;1.50;1.00;;;15.80;98.20;;;;;;4994268;28;20488;-79
2021/09/05 00:27:44;;;;;;;1.50;1.00;;;15.70;98.20;;;;;;4982564;28;20484;-80
2021/09/05 00:30:11;;;;;;;1.50;1.00;;;15.70;98.20;;;;;;4993776;28;20547;-81
2021/09/05 00:32:39;;;;;;;1.50;1.00;;;15.70;98.20;;;;;;4982756;28;20480;-79
2021/09/05 00:35:07;;;;;;;1.50;0.90;;;15.70;98.20;;;;;;4994871;28;20523;-80
2021/09/05 00:37:34;;;;;;;1.50;1.00;;;15.70;98.20;;;;;;4974443;28;20481;-80
2021/09/05 00:40:00;;;;;;;1.53;1.10;;;15.70;98.20;;;;;;4994613;28;20460;-80
2021/09/05 00:42:28;;;;;;;1.50;1.00;;;15.60;98.20;;;;;;4983392;28;20488;-80
2021/09/05 00:44:55;;;;;;;1.50;1.00;;;15.60;98.20;;;;;;4993905;28;20465;-80
2021/09/05 00:47:22;;;;;;;1.50;1.00;;;15.60;98.20;;;;;;4982359;28;20484;-79
2021/09/05 00:49:50;;;;;;;1.60;1.10;;;15.60;98.20;;;;;;4992992;28;21066;-80
2021/09/05 00:52:18;;;;;;;1.50;1.00;;;15.60;98.20;;;;;;4982703;28;20496;-80
2021/09/05 00:54:46;;;;;;;1.50;1.00;;;15.60;98.20;;;;;;4993189;28;20461;-80
2021/09/05 00:57:13;;;;;;;1.50;1.00;;;15.60;98.20;;;;;;4977306;28;20489;-81
2021/09/05 00:59:41;;;;;;;1.60;1.10;;;15.60;98.20;;;;;;4994260;28;20461;-80
2021/09/05 01:02:09;;;;;;;1.50;0.93;;;15.50;98.20;;;;;;4982349;28;21946;-80
2021/09/05 01:04:36;;;;;;;1.50;0.90;;;15.50;98.20;;;;;;4993895;28;20461;-79
2021/09/05 01:07:05;;;;;;;1.50;1.00;;;15.50;98.20;;;;;;4973805;28;20556;-79
2021/09/05 01:09:32;;;;;;;1.50;1.00;;;15.50;98.20;;;;;;4988468;28;20468;-79
2021/09/05 01:11:59;;;;;;;1.50;1.00;;;15.50;98.20;;;;;;4982813;28;20860;-80
2021/09/05 01:14:27;;;;;;;1.50;1.00;;;15.40;98.20;;;;;;4992942;28;20972;-80
2021/09/05 01:16:54;;;;;;;1.50;1.00;;;15.40;98.20;;;;;;4982325;28;21251;-80
2021/09/05 01:19:23;;;;;;;1.50;0.90;;;15.40;98.20;;;;;;4990417;28;20457;-80
2021/09/05 01:21:52;;;;;;;1.50;0.90;;;15.40;98.20;;;;;;4979330;28;20485;-81
2021/09/05 01:24:22;;;;;;;1.50;1.00;;;15.40;98.20;;;;;;4993807;28;20457;-79
2021/09/05 01:26:51;;;;;;;1.53;1.00;;;15.40;98.20;;;;;;4982040;28;20520;-80
2021/09/05 01:29:19;;;;;;;1.50;1.00;;;15.40;98.20;;;;;;4992869;28;20476;-80
2021/09/05 01:31:48;;;;;;;1.53;1.00;;;15.30;98.20;;;;;;4975091;28;20904;-79
2021/09/05 01:34:16;;;;;;;1.50;1.00;;;15.30;98.20;;;;;;4993076;28;20975;-81
2021/09/05 01:36:44;;;;;;;1.50;0.90;;;15.30;98.20;;;;;;4975187;28;20483;-81
2021/09/05 01:39:13;;;;;;;1.50;1.00;;;15.30;98.20;;;;;;4992634;28;20460;-80
2021/09/05 01:41:40;;;;;;;1.53;0.90;;;15.30;98.20;;;;;;4981706;28;20491;-80
2021/09/05 01:44:09;;;;;;;1.57;1.00;;;15.30;98.20;;;;;;4993811;28;21014;-81
2021/09/05 01:46:38;;;;;;;1.50;1.00;;;15.30;98.20;;;;;;4983197;28;20493;-80
2021/09/05 01:49:06;;;;;;;1.57;1.00;;;15.20;98.20;;;;;;4984452;28;20464;-81
2021/09/05 01:51:34;;;;;;;1.50;1.00;;;15.20;98.20;;;;;;4971886;28;20485;-80
2021/09/05 01:54:00;;;;;;;1.57;1.00;;;15.20;98.20;;;;;;4983196;28;21161;-79
2021/09/05 01:56:29;;;;;;;1.57;1.00;;;15.20;98.20;;;;;;4981058;28;20485;-79
2021/09/05 01:58:55;;;;;;;1.50;1.00;;;15.20;98.20;;;;;;4976028;28;20465;-81
2021/09/05 02:01:22;;;;;;;1.57;1.03;;;15.20;98.20;;;;;;4980486;28;20484;-81
2021/09/05 02:03:51;;;;;;;1.50;1.00;;;15.20;98.20;;;;;;4993061;28;20453;-80
2021/09/05 02:06:18;;;;;;;1.60;1.10;;;15.20;98.20;;;;;;4972808;28;20489;-81
2021/09/05 02:08:44;;;;;;;1.50;0.90;;;15.10;98.20;;;;;;4984770;28;20488;-80
2021/09/05 02:11:11;;;;;;;1.60;1.00;;;15.10;98.20;;;;;;4983385;28;20476;-80
2021/09/05 02:13:38;;;;;;;1.50;1.00;;;15.10;98.20;;;;;;4991539;28;20532;-81
2021/09/05 02:16:05;;;;;;;1.53;1.00;;;15.10;98.20;;;;;;4982386;28;20481;-80
2021/09/05 02:18:32;;;;;;;1.57;1.00;;;15.10;98.20;;;;;;4993687;28;20468;-80
2021/09/05 02:21:00;;;;;;;1.53;1.00;;;15.10;98.20;;;;;;4982172;28;20468;-81
2021/09/05 02:23:27;;;;;;;1.50;1.00;;;15.00;98.20;;;;;;4986344;28;20492;-80
2021/09/05 02:25:53;;;;;;;1.60;1.00;;;15.00;98.20;;;;;;4982462;28;20477;-81
2021/09/05 02:28:20;;;;;;;1.50;0.90;;;15.00;98.20;;;;;;4993155;28;20464;-80
2021/09/05 02:30:47;;;;;;;1.60;1.10;;;15.00;98.20;;;;;;4979795;28;20469;-81
2021/09/05 02:33:14;;;;;;;1.50;1.00;;;15.00;98.20;;;;;;4990201;28;20481;-81
2021/09/05 02:35:40;;;;;;;3.10;1.67;;;15.00;98.20;;;;;;4990194;28;20996;-80
2021/09/05 02:38:08;;;;;;;1.53;1.00;;;15.00;98.20;;;;;;4980705;28;20489;-80
2021/09/05 02:40:35;;;;;;;1.50;1.00;;;15.00;98.20;;;;;;4992874;28;20457;-80
2021/09/05 02:43:02;;;;;;;1.50;0.90;;;15.00;98.20;;;;;;4981702;28;20480;-80
2021/09/05 02:45:29;;;;;;;1.50;1.03;;;14.90;98.20;;;;;;4993470;28;20488;-80
2021/09/05 02:47:56;;;;;;;1.60;1.00;;;14.90;98.20;;;;;;4965568;28;20482;-80
2021/09/05 02:50:23;;;;;;;1.60;1.10;;;14.90;98.20;;;;;;4986222;28;20468;-81
2021/09/05 02:52:49;;;;;;;1.57;1.00;;;14.90;98.20;;;;;;4982261;28;20481;-80
2021/09/05 02:55:17;;;;;;;1.50;1.00;;;14.80;98.20;;;;;;4991876;28;20508;-81
2021/09/05 02:57:44;;;;;;;1.70;1.47;;;14.80;98.20;;;;;;4980628;28;20537;-79
2021/09/05 03:00:12;;;;;;;1.50;1.00;;;14.80;98.20;;;;;;4993650;28;20468;-80
2021/09/05 03:02:39;;;;;;;1.53;1.00;;;14.80;98.20;;;;;;4979039;28;20982;-80
2021/09/05 03:05:06;;;;;;;1.50;0.90;;;14.80;98.20;;;;;;4994438;28;20481;-80
2021/09/05 03:07:33;;;;;;;1.50;1.00;;;14.80;98.20;;;;;;4977063;28;20496;-81
2021/09/05 03:10:00;;;;;;;2.03;1.83;;;14.80;98.20;;;;;;4992153;28;20472;-81
2021/09/05 03:12:28;;;;;;;1.70;1.53;;;14.70;98.20;;;;;;4972036;28;20483;-81
2021/09/05 03:14:55;;;;;;;1.50;1.00;;;14.70;98.20;;;;;;4994204;28;20468;-80
2021/09/05 03:17:22;;;;;;;1.53;1.00;;;14.70;98.20;;;;;;4982839;28;20488;-80
2021/09/05 03:19:49;;;;;;;1.53;1.10;;;14.70;98.20;;;;;;4994630;28;20457;-80
2021/09/05 03:22:15;;;;;;;1.50;1.00;;;14.70;98.20;;;;;;4982194;28;20489;-80
2021/09/05 03:24:42;;;;;;;1.50;0.90;;;14.70;98.20;;;;;;4994138;28;20468;-80
2021/09/05 03:27:09;;;;;;;1.50;1.00;;;14.70;98.20;;;;;;4981050;28;20493;-80
2021/09/05 03:29:37;;;;;;;1.50;1.00;;;14.70;98.20;;;;;;4992599;28;20465;-80
2021/09/05 03:32:05;;;;;;;1.50;1.00;;;14.60;98.20;;;;;;4981151;28;20489;-80
2021/09/05 03:34:31;;;;;;;1.53;1.10;;;14.60;98.20;;;;;;4993517;28;20468;-81
2021/09/05 03:36:58;;;;;;;1.50;1.00;;;14.60;98.20;;;;;;4981108;28;20497;-81
2021/09/05 03:39:25;;;;;;;1.50;1.00;;;14.60;98.20;;;;;;4987162;28;20990;-82
2021/09/05 03:41:51;;;;;;;1.50;1.00;;;14.60;98.20;;;;;;4982120;28;20485;-81
2021/09/05 03:44:18;;;;;;;1.57;1.00;;;14.60;98.20;;;;;;4993352;28;20457;-80
2021/09/05 03:46:46;;;;;;;1.50;1.00;;;14.60;98.20;;;;;;4982915;28;20842;-81
2021/09/05 03:49:13;;;;;;;1.60;1.10;;;14.50;98.20;;;;;;4992698;28;20518;-81
2021/09/05 03:51:40;;;;;;;1.50;0.97;;;14.60;98.20;;;;;;4983278;28;20484;-81
2021/09/05 03:54:07;;;;;;;1.50;1.00;;;14.60;98.20;;;;;;4994545;28;20576;-81
2021/09/05 03:56:33;;;;;;;1.53;1.10;;;14.60;98.20;;;;;;4979516;28;20496;-81
2021/09/05 03:59:02;;;;;;;1.57;1.10;;;14.60;98.20;;;;;;4990053;28;20469;-81
2021/09/05 04:01:30;;;;;;;1.50;1.00;;;14.60;98.20;;;;;;4984001;28;20489;-81
2021/09/05 04:03:58;;;;;;;1.53;1.10;;;14.50;98.20;;;;;;4993037;28;20519;-81
2021/09/05 04:06:25;;;;;;;1.50;1.00;;;14.50;98.20;;;;;;4979989;28;20489;-81
2021/09/05 04:08:52;;;;;;;1.60;1.00;;;14.50;98.20;;;;;;4992468;28;20460;-80
2021/09/05 04:11:19;;;;;;;1.50;1.00;;;14.50;98.20;;;;;;4977827;28;20493;-80
2021/09/05 04:13:46;;;;;;;1.50;0.90;;;14.50;98.20;;;;;;4987936;28;20485;-80
2021/09/05 04:16:14;;;;;;;1.50;0.93;;;14.50;98.20;;;;;;4981061;28;21364;-81
2021/09/05 04:18:41;;;;;;;1.50;1.00;;;14.50;98.20;;;;;;4991348;28;20493;-81
2021/09/05 04:21:09;;;;;;;1.53;1.00;;;14.50;98.20;;;;;;4983179;28;20466;-80
2021/09/05 04:23:36;;;;;;;1.50;1.00;;;14.50;98.20;;;;;;4992009;28;20825;-80
2021/09/05 04:26:02;;;;;;;3.60;2.80;;;14.50;98.20;;;;;;4983859;28;20489;-81
2021/09/05 04:28:29;;;;;;;1.50;1.07;;;14.40;98.20;;;;;;4995277;28;20456;-80
2021/09/05 04:30:56;;;;;;;1.53;1.00;;;14.40;98.20;;;;;;4986058;28;21052;-81
2021/09/05 04:33:22;;;;;;;1.60;1.13;;;14.40;98.20;;;;;;4988967;28;20473;-80
2021/09/05 04:35:49;;;;;;;1.57;1.00;;;14.40;98.20;;;;;;4985191;28;20484;-80
2021/09/05 04:38:17;;;;;;;1.53;1.07;;;14.30;98.20;;;;;;4986664;28;20465;-80
2021/09/05 04:40:44;;;;;;;1.60;1.30;;;14.30;98.20;;;;;;4995863;28;20453;-81
2021/09/05 04:43:11;;;;;;;1.50;1.00;;;14.30;98.20;;;;;;4985081;28;20476;-80
2021/09/05 04:45:38;;;;;;;1.57;1.00;;;14.30;98.20;;;;;;4995781;28;20484;-81
2021/09/05 04:48:05;;;;;;;1.50;1.00;;;14.30;98.20;;;;;;4976802;28;20485;-81
2021/09/05 04:50:32;;;;;;;1.50;1.00;;;14.30;98.20;;;;;;4998307;28;20457;-81
2021/09/05 04:52:59;;;;;;;1.53;0.93;;;14.20;98.20;;;;;;4986799;28;20501;-80
2021/09/05 04:55:27;;;;;;;1.50;1.00;;;14.20;98.20;;;;;;4997971;28;20858;-81
2021/09/05 04:57:54;;;;;;;1.50;1.10;;;14.20;98.20;;;;;;4973284;28;20494;-80
2021/09/05 05:00:20;;;;;;;1.53;1.00;;;14.20;98.20;;;;;;4995769;28;20461;-79
2021/09/05 05:02:47;;;;;;;1.57;1.10;;;14.20;98.20;;;;;;4985507;28;20489;-79
2021/09/05 05:05:14;;;;;;;1.50;1.03;;;14.20;98.20;;;;;;4997370;28;20516;-79
2021/09/05 05:07:41;;;;;;;1.53;1.00;;;14.20;98.20;;;;;;4975831;28;20505;-79
2021/09/05 05:10:08;;;;;;;1.50;0.93;;;14.20;98.20;;;;;;4995480;28;20458;-79
2021/09/05 05:12:36;;;;;;;1.50;1.00;;;14.20;98.20;;;;;;4984649;28;20481;-79
2021/09/05 05:15:03;;;;;;;1.50;1.00;;;14.20;98.20;;;;;;4993877;28;21016;-79
2021/09/05 05:17:30;;;;;;;1.57;1.00;;;14.20;98.20;;;;;;4983780;28;20489;-79
2021/09/05 05:19:57;;;;;;;1.57;1.00;;;14.20;98.20;;;;;;4995628;28;20515;-79
2021/09/05 05:22:24;;;;;;;1.70;1.40;;;14.20;98.20;;;;;;4978653;28;20486;-80
2021/09/05 05:24:50;;;;;;;1.53;1.00;;;14.20;98.20;;;;;;4991630;28;20971;-79
2021/09/05 05:27:17;;;;;;;1.50;1.00;;;14.20;98.20;;;;;;4978838;28;20490;-79
2021/09/05 05:29:45;;;;;;;1.50;1.03;;;14.30;98.20;;;;;;4992311;28;20464;-79
2021/09/05 05:32:12;;;;;;;1.50;1.00;;;14.30;98.20;;;;;;4984482;28;20477;-79
2021/09/05 05:34:39;;;;;;;1.53;1.00;;;14.30;98.20;;;;;;4995207;28;20563;-79
2021/09/05 05:37:06;;;;;;;1.53;1.00;;;14.30;98.20;;;;;;4979417;28;20500;-79
2021/09/05 05:39:32;;;;;;;1.50;1.00;;;14.40;98.20;;;;;;4994127;28;20477;-79
2021/09/05 05:41:59;;;;;;;1.50;1.00;;;14.40;98.20;;;;;;4981348;28;21051;-79
2021/09/05 05:44:26;;;;;;;1.53;1.03;;;14.50;98.20;;;;;;4993542;28;20453;-79
2021/09/05 05:46:54;;;;;;;1.53;1.00;;;14.50;98.20;;;;;;4981992;28;20492;-79
2021/09/05 05:49:21;;;;;;;1.53;1.00;;;14.60;98.20;;;;;;4987831;28;20480;-79
2021/09/05 05:51:47;;;;;;;1.53;1.00;;;14.70;98.20;;;;;;4984629;28;20488;-79
2021/09/05 05:54:15;;;;;;;1.50;1.00;;;14.70;98.20;;;;;;4994702;28;20481;-79
2021/09/05 05:56:43;;;;;;;1.50;1.00;;;14.80;98.20;;;;;;4988760;28;20492;-79
2021/09/05 05:59:10;;;;;;;1.50;0.90;;;15.00;98.20;;;;;;4994790;28;20461;-79
2021/09/05 06:01:37;;;;;;;1.53;1.00;;;15.10;98.20;;;;;;4983623;28;20503;-79
2021/09/05 06:04:06;;;;;;;1.57;1.00;;;15.20;98.20;;;;;;4987208;28;21012;-79
2021/09/05 06:06:33;;;;;;;1.50;1.00;;;15.30;98.20;;;;;;4982606;28;20591;-80
2021/09/05 06:09:00;;;;;;;1.50;0.97;;;15.50;98.20;;;;;;4986416;28;20894;-80
2021/09/05 06:11:27;;;;;;;1.50;1.00;;;15.70;98.20;;;;;;4985007;28;20506;-80
2021/09/05 06:13:54;;;;;;;1.57;1.00;;;15.80;98.20;;;;;;4993096;28;20488;-80
2021/09/05 06:16:21;;;;;;;1.50;1.00;;;15.90;98.20;;;;;;4989443;28;20534;-80
2021/09/05 06:18:47;;;;;;;1.53;1.00;;;16.10;98.20;;;;;;4993538;28;20453;-80
2021/09/05 06:21:15;;;;;;;1.57;1.00;;;16.20;98.20;;;;;;4982830;28;20497;-80
2021/09/05 06:23:42;;;;;;;1.50;1.00;;;16.30;98.20;;;;;;4989934;28;20463;-80
2021/09/05 06:26:09;;;;;;;1.57;1.03;;;16.50;98.20;;;;;;4988377;28;20888;-80
2021/09/05 06:28:36;;;;;;;1.50;0.90;;;16.60;98.20;;;;;;5001403;28;20457;-80
2021/09/05 06:31:03;;;;;;;1.53;1.03;;;16.80;98.20;;;;;;4991936;28;20468;-80
2021/09/05 06:33:30;;;;;;;1.53;0.90;;;16.90;98.20;;;;;;5009795;28;20472;-82
2021/09/05 06:35:57;;;;;;;1.53;1.00;;;17.10;98.20;;;;;;4991242;28;20480;-82
2021/09/05 06:38:25;;;;;;;1.53;1.00;;;17.30;98.20;;;;;;5003461;28;20457;-82
2021/09/05 06:40:52;;;;;;;1.53;1.00;;;17.60;98.20;;;;;;4993124;28;20471;-82
2021/09/05 06:43:19;;;;;;;1.53;1.00;;;17.70;98.20;;;;;;5000501;28;20460;-82
2021/09/05 06:45:45;;;;;;;1.53;1.00;;;17.80;98.20;;;;;;5001099;28;20491;-81
2021/09/05 06:48:12;;;;;;;1.50;1.00;;;18.00;98.20;;;;;;4967973;28;20483;-82
2021/09/05 06:50:39;;;;;;;1.53;0.93;;;18.10;98.20;;;;;;5002324;28;20468;-81
2021/09/05 06:53:06;;;;;;;1.60;1.00;;;18.30;98.20;;;;;;4992508;28;20477;-81
2021/09/05 06:55:34;;;;;;;1.50;0.90;;;18.50;98.20;;;;;;4997571;28;20471;-81
2021/09/05 06:58:00;;;;;;;1.50;1.00;;;18.70;98.20;;;;;;4992072;28;20576;-82
2021/09/05 07:00:27;;;;;;;1.53;1.00;;;18.90;98.20;;;;;;5002475;28;20476;-82
2021/09/05 07:02:54;;;;;;;1.57;1.00;;;19.00;98.20;;;;;;4995923;28;20480;-79
2021/09/05 07:05:21;;;;;;;1.53;1.00;;;19.10;98.20;;;;;;4991604;28;20560;-79
2021/09/05 07:07:47;;;;;;;1.50;0.90;;;19.20;98.20;;;;;;4969727;28;20490;-82
2021/09/05 07:10:14;;;;;;;1.57;0.90;;;19.30;98.20;;;;;;4992159;28;20469;-81
2021/09/05 07:12:42;;;;;;;1.50;0.97;;;19.50;98.20;;;;;;4984449;28;20988;-82
2021/09/05 07:15:10;;;;;;;1.53;0.90;;;19.70;98.20;;;;;;4992088;28;20840;-83
2021/09/05 07:17:37;;;;;;;1.53;0.90;;;19.80;98.20;;;;;;4962399;28;20494;-82
2021/09/05 07:20:05;;;;;;;1.50;0.93;;;20.00;98.20;;;;;;4989549;28;20456;-81
2021/09/05 07:22:31;;;;;;;1.60;1.00;;;20.10;98.10;;;;;;4979875;28;20487;-82
2021/09/05 07:24:58;;;;;;;1.53;0.90;;;20.20;98.00;;;;;;4991071;28;20465;-81
2021/09/05 07:27:26;;;;;;;1.57;0.90;;;20.20;98.10;;;;;;4973038;28;20489;-81
2021/09/05 07:29:54;;;;;;;1.57;0.90;;;20.40;97.20;;;;;;4987936;28;20871;-81
2021/09/05 07:32:21;;;;;;;1.57;0.93;;;20.60;97.40;;;;;;4963526;28;20644;-81
2021/09/05 07:34:47;;;;;;;1.50;0.90;;;20.80;97.00;;;;;;4992537;28;20480;-80
2021/09/05 07:37:15;;;;;;;1.50;0.90;;;21.00;96.50;;;;;;4983400;28;20481;-84
2021/09/05 07:39:42;;;;;;;1.50;0.90;;;21.10;95.40;;;;;;4991007;28;20469;-84
2021/09/05 07:42:09;;;;;;;1.50;0.90;;;21.20;95.30;;;;;;4976487;28;20571;-83
2021/09/05 07:44:35;;;;;;;1.57;0.90;;;21.20;95.10;;;;;;4987600;28;20462;-84
2021/09/05 07:47:04;;;;;;;1.53;0.90;;;21.30;95.80;;;;;;4975202;28;20508;-84
2021/09/05 07:49:31;;;;;;;1.53;0.93;;;21.40;95.10;;;;;;4988604;28;20461;-85
2021/09/05 07:51:58;;;;;;;1.50;0.90;;;21.50;95.00;;;;;;4974234;28;20489;-84
2021/09/05 07:54:25;;;;;;;1.50;0.90;;;21.60;95.30;;;;;;4983124;28;20484;-82
2021/09/05 07:56:52;;;;;;;1.50;0.90;;;21.70;95.40;;;;;;4977065;28;20489;-82
2021/09/05 07:59:18;;;;;;;1.50;0.90;;;21.80;95.00;;;;;;4981257;28;20472;-83
2021/09/05 08:01:45;;;;;;;1.50;0.90;;;21.90;95.50;;;;;;4989141;28;20494;-85
2021/09/05 08:04:13;;;;;;;1.57;0.90;;;21.90;93.60;;;;;;4995054;28;20493;-84
2021/09/05 08:06:40;;;;;;;1.57;0.90;;;21.90;94.20;;;;;;4983709;28;20491;-84
2021/09/05 08:09:08;;;;;;;1.50;0.90;;;21.90;94.00;;;;;;4994795;28;20467;-83
2021/09/05 08:11:34;;;;;;;1.50;0.90;;;22.10;94.90;;;;;;4974749;28;20481;-83
2021/09/05 08:14:01;;;;;;;1.50;0.90;;;22.10;93.30;;;;;;4994180;28;20504;-85
2021/09/05 08:16:28;;;;;;;1.53;0.90;;;22.30;92.90;;;;;;4985146;28;20559;-86
2021/09/05 08:18:55;;;;;;;1.50;0.90;;;22.40;91.60;;;;;;4993178;28;20456;-85
2021/09/05 08:21:23;;;;;;;1.50;0.90;;;22.50;92.10;;;;;;4977566;28;20485;-87
2021/09/05 08:23:50;;;;;;;1.90;1.63;;;22.50;91.50;;;;;;4981207;28;20531;-82
2021/09/05 08:26:18;;;;;;;1.57;1.00;;;22.60;91.30;;;;;;4980172;28;21845;-86
2021/09/05 08:28:45;;;;;;;1.50;0.90;;;22.80;90.80;;;;;;4990169;28;20483;-84
2021/09/05 08:31:12;;;;;;;1.50;0.90;;;22.90;90.10;;;;;;4979321;28;20476;-84
2021/09/05 08:33:38;;;;;;;1.57;0.90;;;22.90;90.20;;;;;;4990111;28;20461;-84
2021/09/05 08:36:06;;;;;;;1.57;0.90;;;23.00;90.10;;;;;;4980635;28;20491;-83
2021/09/05 08:38:35;;;;;;;1.53;0.90;;;23.00;90.40;;;;;;4988390;28;20698;-84
2021/09/05 08:41:02;;;;;;;1.60;1.00;;;23.20;89.70;;;;;;4976207;28;20465;-83
2021/09/05 08:43:29;;;;;;;1.50;0.90;;;23.20;89.70;;;;;;4969121;28;20468;-85
2021/09/05 08:45:56;;;;;;;1.53;0.90;;;23.20;88.90;;;;;;4983219;28;20599;-84
2021/09/05 08:48:23;;;;;;;1.50;0.90;;;23.30;89.10;;;;;;4993633;28;20467;-83
2021/09/05 08:50:52;;;;;;;1.53;0.90;;;23.50;88.60;;;;;;4983852;28;20479;-83
2021/09/05 08:53:20;;;;;;;1.53;0.90;;;23.60;88.70;;;;;;4975923;28;20472;-84
2021/09/05 08:55:48;;;;;;;1.50;0.90;;;23.70;88.90;;;;;;4987824;28;20497;-83
2021/09/05 08:58:16;;;;;;;1.50;0.90;;;23.80;88.50;;;;;;4989403;28;20473;-84
2021/09/05 09:00:43;;;;;;;1.50;0.90;;;23.90;87.90;;;;;;4997787;28;20467;-85
2021/09/05 09:03:19;;;;;;;1.53;0.90;;;24.00;88.20;;;;;;4978410;28;20552;-84
2021/09/05 09:05:51;;;;;;;1.53;0.90;;;24.10;88.50;;;;;;4987694;28;20550;-84
2021/09/05 09:08:18;;;;;;;1.50;0.90;;;24.20;88.40;;;;;;4989847;28;20535;-86
2021/09/05 09:10:52;;;;;;;1.50;0.90;;;24.30;87.70;;;;;;4991517;28;20457;-84
2021/09/05 09:13:30;;;;;;;1.50;0.90;;;24.40;87.50;;;;;;4965051;28;20476;-85
2021/09/05 09:15:58;;;;;;;1.50;0.90;;;24.50;85.80;;;;;;4977067;28;20999;-84
2021/09/05 09:18:30;;;;;;;1.50;0.90;;;24.50;86.60;;;;;;4982911;28;20478;-82
2021/09/05 09:20:59;;;;;;;1.50;0.80;;;24.60;85.90;;;;;;4979694;28;20472;-85
2021/09/05 09:23:27;;;;;;;1.57;0.90;;;24.80;86.40;;;;;;4989632;28;20465;-84
2021/09/05 09:26:01;;;;;;;1.50;0.90;;;24.80;85.70;;;;;;4975498;28;20485;-82
2021/09/05 09:28:30;;;;;;;1.50;0.90;;;24.90;86.10;;;;;;4972700;28;20840;-83
2021/09/05 09:30:58;;;;;;;1.57;1.10;;;25.10;86.10;;;;;;4979822;28;20465;-82
2021/09/05 09:33:27;;;;;;;1.50;0.90;;;25.20;85.10;;;;;;4982489;28;20476;-82
2021/09/05 09:35:55;;;;;;;1.60;0.97;;;25.30;86.10;;;;;;4975850;28;20499;-83
2021/09/05 09:38:23;;;;;;;1.50;0.90;;;25.40;85.20;;;;;;4972823;28;20472;-84
2021/09/05 09:40:50;;;;;;;3.43;1.50;;;25.60;84.70;;;;;;4980526;28;20460;-84
2021/09/05 09:43:20;;;;;;;1.50;0.83;;;25.70;85.50;;;;;;4985682;28;20708;-83
2021/09/05 09:45:48;;;;;;;1.53;0.90;;;25.80;83.20;;;;;;4984665;28;20484;-82
2021/09/05 09:48:23;;;;;;;1.70;1.17;;;26.00;83.80;;;;;;4983806;28;20982;-82
2021/09/05 09:50:50;;;;;;;1.50;0.90;;;26.10;82.50;;;;;;4981550;28;20464;-84
2021/09/05 09:53:18;;;;;;;1.50;0.83;;;26.10;82.80;;;;;;4988556;28;20477;-83
2021/09/05 09:55:45;;;;;;;1.50;0.90;;;26.10;82.50;;;;;;4990405;28;20493;-83
2021/09/05 09:58:12;;;;;;;1.50;0.90;;;26.20;83.50;;;;;;4969633;28;20476;-85
2021/09/05 10:04:09;;;;;;;1.50;0.90;;;26.40;84.10;;;;;;4962132;28;20492;-83
2021/09/05 10:06:45;;;;;;;1.50;0.90;;;26.50;82.90;;;;;;4996123;28;20503;-82
2021/09/05 10:09:23;;;;;;;1.50;0.90;;;26.50;82.70;;;;;;4997189;28;20464;-83
2021/09/05 10:11:52;;;;;;;1.50;0.90;;;26.50;82.50;;;;;;4976090;28;20568;-81
2021/09/05 10:14:21;;;;;;;1.50;0.90;;;26.70;82.40;;;;;;4979570;28;20468;-85
2021/09/05 10:16:49;;;;;;;1.50;0.90;;;26.80;82.10;;;;;;4975554;28;20504;-82
2021/09/05 10:19:22;;;;;;;1.50;0.80;;;26.90;82.40;;;;;;4990509;28;20467;-82
2021/09/05 10:21:50;;;;;;;1.50;0.80;;;27.10;81.60;;;;;;4984033;28;20515;-83
2021/09/05 10:24:18;;;;;;;1.50;0.80;;;27.10;80.30;;;;;;4992979;28;20468;-82
2021/09/05 10:27:11;;;;;;;1.50;0.90;;;27.20;82.50;;;;;;4983217;28;20492;-82
2021/09/05 10:29:41;;;;;;;1.50;0.80;;;27.10;80.30;;;;;;4994183;28;20480;-82
2021/09/05 10:32:18;;;;;;;1.50;0.80;;;27.00;80.90;;;;;;4985083;28;20486;-82
2021/09/05 10:34:44;;;;;;;1.60;1.07;;;26.90;81.80;;;;;;4993777;28;20484;-82
2021/09/05 10:37:13;;;;;;;1.50;0.80;;;27.00;81.90;;;;;;4984462;28;20488;-83
2021/09/05 10:40:08;;;;;;;1.50;0.90;;;27.00;80.50;;;;;;4994401;28;21165;-82
2021/09/05 10:43:02;;;;;;;1.50;0.90;;;27.10;80.30;;;;;;4987654;28;20487;-82
2021/09/05 10:46:26;;;;;;;2.67;1.57;;;27.20;80.40;;;;;;4998134;28;20485;-82
2021/09/05 10:49:06;;;;;;;1.60;1.07;;;27.30;79.60;;;;;;4958293;28;20518;-83
2021/09/05 10:52:28;;;;;;;1.50;0.90;;;27.20;80.80;;;;;;4984400;28;20489;-83
2021/09/05 10:58:32;;;;;;;1.50;0.80;;;27.30;80.60;;;;;;5002069;28;20562;-83
2021/09/05 11:08:11;;;;;;;1.50;0.90;;;27.40;80.30;;;;;;4959200;28;20480;-83
2021/09/05 11:10:51;;;;;;;1.50;0.80;;;27.50;80.70;;;;;;4984458;28;20891;-83
2021/09/05 11:13:46;;;;;;;1.50;1.00;;;27.70;80.30;;;;;;4967206;28;20476;-85
2021/09/05 11:16:16;;;;;;;1.60;1.20;;;27.80;78.80;;;;;;4968860;28;21709;-81
2021/09/05 11:18:45;;;;;;;1.50;0.80;;;27.60;79.50;;;;;;4981393;28;20478;-80
2021/09/05 11:21:38;;;;;;;1.80;1.43;;;27.70;79.60;;;;;;4985007;28;20709;-79
2021/09/05 11:24:28;;;;;;;1.60;1.17;;;27.80;78.10;;;;;;4995407;28;20560;-82
2021/09/05 11:27:01;;;;;;;1.50;0.80;;;27.80;78.80;;;;;;4980126;28;21027;-83
2021/09/05 11:29:28;;;;;;;1.50;0.90;;;28.00;78.80;;;;;;4985798;28;20471;-82
2021/09/05 11:32:01;;;;;;;1.50;0.80;;;28.10;79.30;;;;;;4977902;28;20480;-80
2021/09/05 11:34:28;;;;;;;1.50;0.80;;;28.20;79.00;;;;;;4990858;28;20463;-82
2021/09/05 11:36:55;;;;;;;1.50;0.80;;;28.20;77.90;;;;;;4981589;28;21078;-80
2021/09/05 11:39:22;;;;;;;1.50;1.00;;;28.20;77.70;;;;;;4996154;28;20461;-81
2021/09/05 11:41:52;;;;;;;1.50;0.90;;;28.10;78.40;;;;;;4985240;28;20488;-80
2021/09/05 11:44:27;;;;;;;1.50;1.10;;;28.20;78.80;;;;;;5000762;28;20491;-80
2021/09/05 11:47:20;;;;;;;1.50;0.90;;;28.30;78.20;;;;;;4981287;28;20492;-82
2021/09/05 11:49:52;;;;;;;2.07;1.17;;;28.40;77.80;;;;;;4988716;28;20935;-81
2021/09/05 11:52:26;;;;;;;1.47;0.80;;;28.50;77.20;;;;;;4981667;28;20495;-81
2021/09/05 11:55:00;;;;;;;1.50;0.80;;;28.50;76.20;;;;;;4987689;28;20459;-82
2021/09/05 11:57:27;;;;;;;1.50;0.80;;;28.70;76.10;;;;;;4982452;28;20488;-82
2021/09/05 11:59:55;;;;;;;1.50;0.80;;;28.80;76.00;;;;;;4989083;28;20534;-81
2021/09/05 12:02:41;;;;;;;1.50;0.80;;;28.70;75.60;;;;;;4976162;28;20495;-80
2021/09/05 12:05:11;;;;;;;1.50;0.80;;;28.90;75.30;;;;;;4988197;28;20468;-81
2021/09/05 12:07:40;;;;;;;1.50;0.80;;;28.90;75.60;;;;;;4977631;28;20488;-84
2021/09/05 12:10:10;;;;;;;1.50;0.80;;;29.00;75.70;;;;;;4990097;28;20503;-80
2021/09/05 12:12:38;;;;;;;1.50;0.80;;;29.10;76.00;;;;;;4971618;28;20476;-81
2021/09/05 12:15:16;;;;;;;1.47;0.80;;;29.10;77.00;;;;;;4988102;28;20487;-81
2021/09/05 12:17:46;;;;;;;1.50;0.80;;;29.20;76.20;;;;;;4959803;28;20505;-81
2021/09/05 12:20:14;;;;;;;1.50;0.80;;;29.30;75.10;;;;;;4986599;28;20464;-80
2021/09/05 12:22:45;;;;;;;3.77;2.60;;;29.00;74.60;;;;;;4964611;28;20869;-79
2021/09/05 12:25:14;;;;;;;1.50;0.80;;;28.90;75.70;;;;;;4985159;28;20792;-79
2021/09/05 12:27:52;;;;;;;1.50;0.80;;;29.10;75.70;;;;;;4974092;28;20502;-80
2021/09/05 12:30:26;;;;;;;1.50;0.80;;;29.30;75.30;;;;;;4986072;28;20468;-80
2021/09/05 12:33:10;;;;;;;1.50;0.80;;;29.40;73.50;;;;;;4974217;28;20484;-81
2021/09/05 12:35:37;;;;;;;1.50;0.80;;;29.30;73.80;;;;;;4988877;28;20498;-80
2021/09/05 12:38:12;;;;;;;1.50;0.90;;;29.20;75.20;;;;;;4977171;28;20535;-79
2021/09/05 12:40:41;;;;;;;1.50;0.80;;;29.30;75.40;;;;;;4987040;28;20893;-79
2021/09/05 12:43:09;;;;;;;1.40;0.80;;;29.50;73.80;;;;;;4975079;28;20496;-79
2021/09/05 12:45:37;;;;;;;1.50;1.00;;;29.60;74.40;;;;;;4985498;28;20472;-80
2021/09/05 12:48:13;;;;;;;1.50;0.80;;;29.70;73.70;;;;;;4968602;28;20496;-80
2021/09/05 12:50:40;;;;;;;2.10;1.63;;;29.80;72.00;;;;;;4987579;28;20599;-79
2021/09/05 12:53:17;;;;;;;1.50;0.80;;;29.90;72.40;;;;;;4974339;28;20550;-79
2021/09/05 12:55:44;;;;;;;1.50;0.80;;;30.10;74.10;;;;;;4987100;28;20487;-80
2021/09/05 12:58:11;;;;;;;1.47;0.80;;;30.30;75.90;;;;;;4970241;28;20488;-79
2021/09/05 13:00:39;;;;;;;1.50;0.90;;;30.40;72.10;;;;;;4997365;28;20926;-79
2021/09/05 13:03:06;;;;;;;1.50;0.90;;;30.50;71.60;;;;;;4980272;28;20492;-79
2021/09/05 13:05:35;;;;;;;1.43;0.80;;;30.50;73.60;;;;;;5001839;28;20514;-79
2021/09/05 13:08:03;;;;;;;1.47;0.80;;;30.40;72.70;;;;;;4961477;28;20559;-79
2021/09/05 13:10:31;;;;;;;1.47;0.83;;;30.40;71.20;;;;;;4987307;28;20460;-79